sensor_id;sensor_type;location;lat;lon;timestamp;P1;durP1;ratioP1;P2;durP2;ratioP2
48685;SDS011;34485;51.536;3.816;2022-10-16T00:03:34;2.45;;;2.35;;
48685;SDS011;34485;51.536;3.816;2022-10-16T00:06:00;4.82;;;2.15;;
48685;SDS011;34485;51.536;3.816;2022-10-16T00:08:27;2.50;;;2.30;;
48685;SDS011;34485;51.536;3.816;2022-10-16T00:10:58;2.43;;;2.17;;
48685;SDS011;34485;51.536;3.816;2022-10-16T00:13:24;5.25;;;2.53;;
48685;SDS011;34485;51.536;3.816;2022-10-16T00:15:50;3.50;;;2.75;;
48685;SDS011;34485;51.536;3.816;2022-10-16T00:18:16;3.10;;;2.80;;
48685;SDS011;34485;51.536;3.816;2022-10-16T00:20:41;2.87;;;2.63;;
48685;SDS011;34485;51.536;3.816;2022-10-16T00:23:07;2.70;;;2.50;;
48685;SDS011;34485;51.536;3.816;2022-10-16T00:25:35;3.78;;;3.42;;
48685;SDS011;34485;51.536;3.816;2022-10-16T00:28:01;3.90;;;2.97;;
48685;SDS011;34485;51.536;3.816;2022-10-16T00:30:27;2.40;;;2.20;;
48685;SDS011;34485;51.536;3.816;2022-10-16T00:32:53;3.63;;;2.07;;
48685;SDS011;34485;51.536;3.816;2022-10-16T00:35:19;2.90;;;2.60;;
48685;SDS011;34485;51.536;3.816;2022-10-16T00:37:45;3.25;;;2.92;;
48685;SDS011;34485;51.536;3.816;2022-10-16T00:40:10;3.23;;;2.60;;
48685;SDS011;34485;51.536;3.816;2022-10-16T00:42:36;4.43;;;2.27;;
48685;SDS011;34485;51.536;3.816;2022-10-16T00:45:02;5.03;;;2.80;;
48685;SDS011;34485;51.536;3.816;2022-10-16T00:50:09;3.60;;;2.83;;
48685;SDS011;34485;51.536;3.816;2022-10-16T00:52:49;3.13;;;2.70;;
48685;SDS011;34485;51.536;3.816;2022-10-16T00:55:16;4.30;;;2.65;;
48685;SDS011;34485;51.536;3.816;2022-10-16T00:57:43;4.97;;;3.15;;
48685;SDS011;34485;51.536;3.816;2022-10-16T01:00:10;3.10;;;2.80;;
48685;SDS011;34485;51.536;3.816;2022-10-16T01:02:38;2.95;;;2.75;;
48685;SDS011;34485;51.536;3.816;2022-10-16T01:05:04;4.53;;;2.70;;
48685;SDS011;34485;51.536;3.816;2022-10-16T01:13:31;2.47;;;2.37;;
48685;SDS011;34485;51.536;3.816;2022-10-16T01:16:07;6.70;;;2.40;;
48685;SDS011;34485;51.536;3.816;2022-10-16T01:18:54;2.70;;;2.50;;
48685;SDS011;34485;51.536;3.816;2022-10-16T01:21:31;8.77;;;2.80;;
48685;SDS011;34485;51.536;3.816;2022-10-16T01:29:34;2.90;;;1.95;;
48685;SDS011;34485;51.536;3.816;2022-10-16T01:32:42;2.33;;;2.22;;
48685;SDS011;34485;51.536;3.816;2022-10-16T01:37:48;4.20;;;2.10;;
48685;SDS011;34485;51.536;3.816;2022-10-16T01:40:21;1.57;;;1.47;;
48685;SDS011;34485;51.536;3.816;2022-10-16T01:42:59;2.58;;;1.85;;
48685;SDS011;34485;51.536;3.816;2022-10-16T01:45:31;3.28;;;2.70;;
48685;SDS011;34485;51.536;3.816;2022-10-16T01:47:59;4.13;;;2.03;;
48685;SDS011;34485;51.536;3.816;2022-10-16T01:50:29;2.35;;;1.90;;
48685;SDS011;34485;51.536;3.816;2022-10-16T01:52:58;2.63;;;1.67;;
48685;SDS011;34485;51.536;3.816;2022-10-16T01:55:37;3.42;;;1.83;;
48685;SDS011;34485;51.536;3.816;2022-10-16T01:58:09;3.33;;;2.47;;
48685;SDS011;34485;51.536;3.816;2022-10-16T02:00:37;3.08;;;1.88;;
48685;SDS011;34485;51.536;3.816;2022-10-16T02:03:03;6.15;;;2.33;;
48685;SDS011;34485;51.536;3.816;2022-10-16T02:05:32;4.97;;;2.17;;
48685;SDS011;34485;51.536;3.816;2022-10-16T02:08:03;2.50;;;2.30;;
48685;SDS011;34485;51.536;3.816;2022-10-16T02:10:29;2.42;;;2.22;;
48685;SDS011;34485;51.536;3.816;2022-10-16T02:13:03;7.20;;;2.80;;
48685;SDS011;34485;51.536;3.816;2022-10-16T02:15:34;2.37;;;2.00;;
48685;SDS011;34485;51.536;3.816;2022-10-16T02:18:01;2.33;;;1.60;;
48685;SDS011;34485;51.536;3.816;2022-10-16T02:20:32;3.55;;;2.20;;
48685;SDS011;34485;51.536;3.816;2022-10-16T02:23:01;2.42;;;2.13;;
48685;SDS011;34485;51.536;3.816;2022-10-16T02:25:30;3.78;;;2.53;;
48685;SDS011;34485;51.536;3.816;2022-10-16T02:30:45;2.65;;;1.85;;
48685;SDS011;34485;51.536;3.816;2022-10-16T02:33:15;3.13;;;2.58;;
48685;SDS011;34485;51.536;3.816;2022-10-16T02:35:42;2.22;;;2.08;;
48685;SDS011;34485;51.536;3.816;2022-10-16T02:38:10;2.72;;;2.13;;
48685;SDS011;34485;51.536;3.816;2022-10-16T02:40:37;1.93;;;1.83;;
48685;SDS011;34485;51.536;3.816;2022-10-16T02:43:03;2.60;;;1.92;;
48685;SDS011;34485;51.536;3.816;2022-10-16T02:45:30;3.03;;;1.73;;
48685;SDS011;34485;51.536;3.816;2022-10-16T02:47:55;2.57;;;2.10;;
48685;SDS011;34485;51.536;3.816;2022-10-16T02:50:21;2.58;;;2.35;;
48685;SDS011;34485;51.536;3.816;2022-10-16T02:52:47;4.57;;;1.97;;
48685;SDS011;34485;51.536;3.816;2022-10-16T02:55:13;2.10;;;1.60;;
48685;SDS011;34485;51.536;3.816;2022-10-16T02:57:39;3.35;;;2.58;;
48685;SDS011;34485;51.536;3.816;2022-10-16T03:00:05;3.83;;;2.22;;
48685;SDS011;34485;51.536;3.816;2022-10-16T03:02:33;8.53;;;2.37;;
48685;SDS011;34485;51.536;3.816;2022-10-16T03:04:58;4.75;;;2.47;;
48685;SDS011;34485;51.536;3.816;2022-10-16T03:07:24;2.47;;;2.20;;
48685;SDS011;34485;51.536;3.816;2022-10-16T03:09:49;2.83;;;2.63;;
48685;SDS011;34485;51.536;3.816;2022-10-16T03:12:15;3.13;;;2.73;;
48685;SDS011;34485;51.536;3.816;2022-10-16T03:14:41;6.30;;;2.63;;
48685;SDS011;34485;51.536;3.816;2022-10-16T03:17:06;10.52;;;4.75;;
48685;SDS011;34485;51.536;3.816;2022-10-16T03:19:32;2.70;;;2.27;;
48685;SDS011;34485;51.536;3.816;2022-10-16T03:21:58;2.40;;;2.20;;
48685;SDS011;34485;51.536;3.816;2022-10-16T03:24:23;3.30;;;3.10;;
48685;SDS011;34485;51.536;3.816;2022-10-16T03:26:49;5.30;;;2.65;;
48685;SDS011;34485;51.536;3.816;2022-10-16T03:29:14;2.00;;;1.90;;
48685;SDS011;34485;51.536;3.816;2022-10-16T03:31:40;6.13;;;2.70;;
48685;SDS011;34485;51.536;3.816;2022-10-16T03:34:05;2.95;;;2.33;;
48685;SDS011;34485;51.536;3.816;2022-10-16T03:36:31;3.60;;;2.87;;
48685;SDS011;34485;51.536;3.816;2022-10-16T03:38:57;8.95;;;2.72;;
48685;SDS011;34485;51.536;3.816;2022-10-16T03:41:22;1.93;;;1.83;;
48685;SDS011;34485;51.536;3.816;2022-10-16T03:43:48;4.60;;;2.17;;
48685;SDS011;34485;51.536;3.816;2022-10-16T03:46:13;3.38;;;2.33;;
48685;SDS011;34485;51.536;3.816;2022-10-16T03:48:39;2.40;;;2.17;;
48685;SDS011;34485;51.536;3.816;2022-10-16T03:51:05;3.17;;;2.47;;
48685;SDS011;34485;51.536;3.816;2022-10-16T03:53:31;4.20;;;1.83;;
48685;SDS011;34485;51.536;3.816;2022-10-16T03:55:56;2.58;;;2.20;;
48685;SDS011;34485;51.536;3.816;2022-10-16T03:58:22;4.80;;;2.10;;
48685;SDS011;34485;51.536;3.816;2022-10-16T04:00:47;4.72;;;1.95;;
48685;SDS011;34485;51.536;3.816;2022-10-16T04:03:13;5.70;;;2.30;;
48685;SDS011;34485;51.536;3.816;2022-10-16T04:05:39;6.65;;;2.80;;
48685;SDS011;34485;51.536;3.816;2022-10-16T04:08:05;9.35;;;3.42;;
48685;SDS011;34485;51.536;3.816;2022-10-16T04:10:31;4.87;;;2.83;;
48685;SDS011;34485;51.536;3.816;2022-10-16T04:12:56;2.67;;;1.95;;
48685;SDS011;34485;51.536;3.816;2022-10-16T04:15:23;5.30;;;2.60;;
48685;SDS011;34485;51.536;3.816;2022-10-16T04:17:49;2.42;;;2.28;;
48685;SDS011;34485;51.536;3.816;2022-10-16T04:20:15;3.42;;;2.25;;
48685;SDS011;34485;51.536;3.816;2022-10-16T04:22:40;5.63;;;3.53;;
48685;SDS011;34485;51.536;3.816;2022-10-16T04:25:06;7.03;;;2.10;;
48685;SDS011;34485;51.536;3.816;2022-10-16T04:27:32;2.60;;;2.27;;
48685;SDS011;34485;51.536;3.816;2022-10-16T04:29:58;2.33;;;2.13;;
48685;SDS011;34485;51.536;3.816;2022-10-16T04:32:25;3.58;;;3.05;;
48685;SDS011;34485;51.536;3.816;2022-10-16T04:34:51;5.57;;;2.40;;
48685;SDS011;34485;51.536;3.816;2022-10-16T04:37:17;4.43;;;2.60;;
48685;SDS011;34485;51.536;3.816;2022-10-16T04:39:42;3.03;;;2.13;;
48685;SDS011;34485;51.536;3.816;2022-10-16T04:42:08;7.35;;;2.25;;
48685;SDS011;34485;51.536;3.816;2022-10-16T04:44:34;7.47;;;3.40;;
48685;SDS011;34485;51.536;3.816;2022-10-16T04:46:59;6.30;;;2.80;;
48685;SDS011;34485;51.536;3.816;2022-10-16T04:49:25;3.30;;;2.90;;
48685;SDS011;34485;51.536;3.816;2022-10-16T04:51:51;2.72;;;2.28;;
48685;SDS011;34485;51.536;3.816;2022-10-16T04:54:16;3.10;;;2.73;;
48685;SDS011;34485;51.536;3.816;2022-10-16T04:56:42;3.17;;;2.05;;
48685;SDS011;34485;51.536;3.816;2022-10-16T04:59:12;5.10;;;2.23;;
48685;SDS011;34485;51.536;3.816;2022-10-16T05:01:41;3.05;;;2.70;;
48685;SDS011;34485;51.536;3.816;2022-10-16T05:04:06;3.10;;;2.53;;
48685;SDS011;34485;51.536;3.816;2022-10-16T05:06:32;6.67;;;2.43;;
48685;SDS011;34485;51.536;3.816;2022-10-16T05:08:58;6.90;;;2.92;;
48685;SDS011;34485;51.536;3.816;2022-10-16T05:11:23;5.53;;;2.00;;
48685;SDS011;34485;51.536;3.816;2022-10-16T05:13:49;4.97;;;1.80;;
48685;SDS011;34485;51.536;3.816;2022-10-16T05:16:15;4.60;;;2.73;;
48685;SDS011;34485;51.536;3.816;2022-10-16T05:18:40;4.10;;;2.50;;
48685;SDS011;34485;51.536;3.816;2022-10-16T05:21:06;4.57;;;2.20;;
48685;SDS011;34485;51.536;3.816;2022-10-16T05:23:31;4.10;;;1.90;;
48685;SDS011;34485;51.536;3.816;2022-10-16T05:25:57;5.10;;;2.03;;
48685;SDS011;34485;51.536;3.816;2022-10-16T05:28:24;5.38;;;1.92;;
48685;SDS011;34485;51.536;3.816;2022-10-16T05:30:51;4.57;;;2.38;;
48685;SDS011;34485;51.536;3.816;2022-10-16T05:33:19;4.80;;;2.30;;
48685;SDS011;34485;51.536;3.816;2022-10-16T05:35:45;3.95;;;2.03;;
48685;SDS011;34485;51.536;3.816;2022-10-16T05:38:11;8.27;;;2.33;;
48685;SDS011;34485;51.536;3.816;2022-10-16T05:40:37;4.53;;;2.47;;
48685;SDS011;34485;51.536;3.816;2022-10-16T05:43:02;5.80;;;2.60;;
48685;SDS011;34485;51.536;3.816;2022-10-16T05:45:28;5.03;;;1.80;;
48685;SDS011;34485;51.536;3.816;2022-10-16T05:47:54;6.22;;;2.00;;
48685;SDS011;34485;51.536;3.816;2022-10-16T05:50:19;3.70;;;1.90;;
48685;SDS011;34485;51.536;3.816;2022-10-16T05:52:45;7.50;;;1.87;;
48685;SDS011;34485;51.536;3.816;2022-10-16T05:55:10;2.97;;;2.72;;
48685;SDS011;34485;51.536;3.816;2022-10-16T05:57:36;7.97;;;2.40;;
48685;SDS011;34485;51.536;3.816;2022-10-16T06:00:02;8.75;;;3.17;;
48685;SDS011;34485;51.536;3.816;2022-10-16T06:02:29;6.20;;;2.50;;
48685;SDS011;34485;51.536;3.816;2022-10-16T06:04:54;4.13;;;1.80;;
48685;SDS011;34485;51.536;3.816;2022-10-16T06:07:20;3.20;;;2.20;;
48685;SDS011;34485;51.536;3.816;2022-10-16T06:09:49;8.00;;;2.20;;
48685;SDS011;34485;51.536;3.816;2022-10-16T06:12:16;6.50;;;2.00;;
48685;SDS011;34485;51.536;3.816;2022-10-16T06:14:42;5.72;;;2.13;;
48685;SDS011;34485;51.536;3.816;2022-10-16T06:17:07;3.43;;;1.60;;
48685;SDS011;34485;51.536;3.816;2022-10-16T06:19:33;5.53;;;2.40;;
48685;SDS011;34485;51.536;3.816;2022-10-16T06:21:58;4.63;;;2.57;;
48685;SDS011;34485;51.536;3.816;2022-10-16T06:24:25;4.38;;;2.65;;
48685;SDS011;34485;51.536;3.816;2022-10-16T06:26:50;7.33;;;2.37;;
48685;SDS011;34485;51.536;3.816;2022-10-16T06:29:16;3.80;;;2.27;;
48685;SDS011;34485;51.536;3.816;2022-10-16T06:31:42;8.63;;;2.93;;
48685;SDS011;34485;51.536;3.816;2022-10-16T06:34:08;8.87;;;2.43;;
48685;SDS011;34485;51.536;3.816;2022-10-16T06:36:35;5.73;;;2.43;;
48685;SDS011;34485;51.536;3.816;2022-10-16T06:39:02;5.53;;;2.45;;
48685;SDS011;34485;51.536;3.816;2022-10-16T06:41:28;6.18;;;2.58;;
48685;SDS011;34485;51.536;3.816;2022-10-16T06:43:53;2.30;;;2.10;;
48685;SDS011;34485;51.536;3.816;2022-10-16T06:46:20;5.47;;;2.17;;
48685;SDS011;34485;51.536;3.816;2022-10-16T06:48:48;8.60;;;2.23;;
48685;SDS011;34485;51.536;3.816;2022-10-16T06:51:18;4.88;;;2.70;;
48685;SDS011;34485;51.536;3.816;2022-10-16T06:53:52;5.90;;;2.28;;
48685;SDS011;34485;51.536;3.816;2022-10-16T06:56:19;7.22;;;2.78;;
48685;SDS011;34485;51.536;3.816;2022-10-16T06:58:46;5.95;;;3.08;;
48685;SDS011;34485;51.536;3.816;2022-10-16T07:01:13;6.63;;;1.87;;
48685;SDS011;34485;51.536;3.816;2022-10-16T07:03:40;5.05;;;2.03;;
48685;SDS011;34485;51.536;3.816;2022-10-16T07:06:07;7.50;;;2.67;;
48685;SDS011;34485;51.536;3.816;2022-10-16T07:08:34;4.80;;;2.40;;
48685;SDS011;34485;51.536;3.816;2022-10-16T07:11:05;5.13;;;2.53;;
48685;SDS011;34485;51.536;3.816;2022-10-16T07:13:33;3.20;;;2.47;;
48685;SDS011;34485;51.536;3.816;2022-10-16T07:18:37;9.27;;;2.80;;
48685;SDS011;34485;51.536;3.816;2022-10-16T07:21:11;4.35;;;2.30;;
48685;SDS011;34485;51.536;3.816;2022-10-16T07:23:38;7.70;;;2.15;;
48685;SDS011;34485;51.536;3.816;2022-10-16T07:26:05;6.13;;;1.60;;
48685;SDS011;34485;51.536;3.816;2022-10-16T07:28:31;5.90;;;2.90;;
48685;SDS011;34485;51.536;3.816;2022-10-16T07:31:07;6.10;;;2.55;;
48685;SDS011;34485;51.536;3.816;2022-10-16T07:33:36;4.65;;;2.58;;
48685;SDS011;34485;51.536;3.816;2022-10-16T07:36:02;3.55;;;2.05;;
48685;SDS011;34485;51.536;3.816;2022-10-16T07:38:28;5.00;;;1.53;;
48685;SDS011;34485;51.536;3.816;2022-10-16T07:41:01;6.85;;;2.72;;
48685;SDS011;34485;51.536;3.816;2022-10-16T07:43:31;7.28;;;2.75;;
48685;SDS011;34485;51.536;3.816;2022-10-16T07:45:57;6.65;;;2.15;;
48685;SDS011;34485;51.536;3.816;2022-10-16T07:48:23;3.27;;;2.70;;
48685;SDS011;34485;51.536;3.816;2022-10-16T07:50:52;6.18;;;2.53;;
48685;SDS011;34485;51.536;3.816;2022-10-16T07:53:21;4.82;;;2.25;;
48685;SDS011;34485;51.536;3.816;2022-10-16T07:55:47;4.20;;;2.33;;
48685;SDS011;34485;51.536;3.816;2022-10-16T07:58:12;7.82;;;2.55;;
48685;SDS011;34485;51.536;3.816;2022-10-16T08:00:38;8.33;;;2.00;;
48685;SDS011;34485;51.536;3.816;2022-10-16T08:03:03;4.93;;;1.67;;
48685;SDS011;34485;51.536;3.816;2022-10-16T08:05:29;4.25;;;1.92;;
48685;SDS011;34485;51.536;3.816;2022-10-16T08:07:56;5.78;;;2.38;;
48685;SDS011;34485;51.536;3.816;2022-10-16T08:10:23;5.87;;;2.07;;
48685;SDS011;34485;51.536;3.816;2022-10-16T08:12:50;9.27;;;2.92;;
48685;SDS011;34485;51.536;3.816;2022-10-16T08:15:16;6.43;;;2.28;;
48685;SDS011;34485;51.536;3.816;2022-10-16T08:17:42;5.10;;;2.60;;
48685;SDS011;34485;51.536;3.816;2022-10-16T08:20:08;3.88;;;1.70;;
48685;SDS011;34485;51.536;3.816;2022-10-16T08:22:34;6.43;;;1.88;;
48685;SDS011;34485;51.536;3.816;2022-10-16T08:25:00;4.80;;;1.97;;
48685;SDS011;34485;51.536;3.816;2022-10-16T08:27:30;5.07;;;1.87;;
48685;SDS011;34485;51.536;3.816;2022-10-16T08:29:56;5.80;;;1.97;;
48685;SDS011;34485;51.536;3.816;2022-10-16T08:32:22;5.32;;;1.95;;
48685;SDS011;34485;51.536;3.816;2022-10-16T08:34:47;4.87;;;1.90;;
48685;SDS011;34485;51.536;3.816;2022-10-16T08:37:13;7.63;;;2.13;;
48685;SDS011;34485;51.536;3.816;2022-10-16T08:39:39;4.03;;;2.00;;
48685;SDS011;34485;51.536;3.816;2022-10-16T08:42:11;7.43;;;2.65;;
48685;SDS011;34485;51.536;3.816;2022-10-16T08:47:49;8.30;;;2.53;;
48685;SDS011;34485;51.536;3.816;2022-10-16T08:50:28;9.80;;;2.40;;
48685;SDS011;34485;51.536;3.816;2022-10-16T08:52:56;6.05;;;2.50;;
48685;SDS011;34485;51.536;3.816;2022-10-16T08:57:57;5.43;;;2.03;;
48685;SDS011;34485;51.536;3.816;2022-10-16T09:00:23;6.53;;;2.23;;
48685;SDS011;34485;51.536;3.816;2022-10-16T09:11:25;5.22;;;2.30;;
48685;SDS011;34485;51.536;3.816;2022-10-16T09:17:17;8.30;;;2.78;;
48685;SDS011;34485;51.536;3.816;2022-10-16T09:20:13;6.45;;;2.78;;
48685;SDS011;34485;51.536;3.816;2022-10-16T09:23:15;6.18;;;3.03;;
48685;SDS011;34485;51.536;3.816;2022-10-16T09:25:54;2.90;;;1.83;;
48685;SDS011;34485;51.536;3.816;2022-10-16T09:28:22;6.80;;;2.50;;
48685;SDS011;34485;51.536;3.816;2022-10-16T09:30:47;8.25;;;2.40;;
48685;SDS011;34485;51.536;3.816;2022-10-16T09:33:14;4.70;;;2.08;;
48685;SDS011;34485;51.536;3.816;2022-10-16T09:35:43;7.03;;;2.23;;
48685;SDS011;34485;51.536;3.816;2022-10-16T09:38:20;4.07;;;2.38;;
48685;SDS011;34485;51.536;3.816;2022-10-16T09:40:51;5.85;;;3.10;;
48685;SDS011;34485;51.536;3.816;2022-10-16T09:43:24;7.43;;;2.85;;
48685;SDS011;34485;51.536;3.816;2022-10-16T09:45:59;4.53;;;2.10;;
48685;SDS011;34485;51.536;3.816;2022-10-16T09:48:31;4.70;;;2.47;;
48685;SDS011;34485;51.536;3.816;2022-10-16T09:53:57;10.50;;;2.70;;
48685;SDS011;34485;51.536;3.816;2022-10-16T09:56:33;11.48;;;2.65;;
48685;SDS011;34485;51.536;3.816;2022-10-16T09:59:10;5.65;;;2.53;;
48685;SDS011;34485;51.536;3.816;2022-10-16T10:01:37;8.60;;;3.07;;
48685;SDS011;34485;51.536;3.816;2022-10-16T10:04:05;6.18;;;2.78;;
48685;SDS011;34485;51.536;3.816;2022-10-16T10:11:52;9.13;;;2.90;;
48685;SDS011;34485;51.536;3.816;2022-10-16T10:14:36;11.53;;;3.27;;
48685;SDS011;34485;51.536;3.816;2022-10-16T10:19:50;8.60;;;2.70;;
48685;SDS011;34485;51.536;3.816;2022-10-16T10:22:18;11.73;;;2.85;;
48685;SDS011;34485;51.536;3.816;2022-10-16T10:30:27;9.45;;;2.85;;
48685;SDS011;34485;51.536;3.816;2022-10-16T10:45:54;6.65;;;2.67;;
48685;SDS011;34485;51.536;3.816;2022-10-16T10:51:15;7.90;;;2.58;;
48685;SDS011;34485;51.536;3.816;2022-10-16T11:01:53;10.30;;;3.50;;
48685;SDS011;34485;51.536;3.816;2022-10-16T11:07:28;10.13;;;3.07;;
48685;SDS011;34485;51.536;3.816;2022-10-16T11:09:59;6.75;;;2.95;;
48685;SDS011;34485;51.536;3.816;2022-10-16T11:12:42;11.35;;;3.15;;
48685;SDS011;34485;51.536;3.816;2022-10-16T11:15:13;9.60;;;2.83;;
48685;SDS011;34485;51.536;3.816;2022-10-16T11:18:05;10.35;;;3.10;;
48685;SDS011;34485;51.536;3.816;2022-10-16T11:23:05;9.25;;;2.90;;
48685;SDS011;34485;51.536;3.816;2022-10-16T11:25:41;8.45;;;2.78;;
48685;SDS011;34485;51.536;3.816;2022-10-16T11:28:20;9.77;;;3.40;;
48685;SDS011;34485;51.536;3.816;2022-10-16T11:31:07;10.00;;;2.50;;
48685;SDS011;34485;51.536;3.816;2022-10-16T11:33:41;6.83;;;2.93;;
48685;SDS011;34485;51.536;3.816;2022-10-16T11:36:32;9.50;;;3.42;;
48685;SDS011;34485;51.536;3.816;2022-10-16T11:39:12;8.02;;;3.20;;
48685;SDS011;34485;51.536;3.816;2022-10-16T11:41:49;14.07;;;3.10;;
48685;SDS011;34485;51.536;3.816;2022-10-16T11:49:57;8.55;;;2.83;;
48685;SDS011;34485;51.536;3.816;2022-10-16T11:52:51;10.98;;;2.60;;
48685;SDS011;34485;51.536;3.816;2022-10-16T11:55:22;13.30;;;3.25;;
48685;SDS011;34485;51.536;3.816;2022-10-16T11:58:00;11.73;;;2.90;;
48685;SDS011;34485;51.536;3.816;2022-10-16T12:03:26;13.05;;;3.05;;
48685;SDS011;34485;51.536;3.816;2022-10-16T12:08:35;16.05;;;2.95;;
48685;SDS011;34485;51.536;3.816;2022-10-16T12:13:48;7.73;;;2.67;;
48685;SDS011;34485;51.536;3.816;2022-10-16T12:18:41;11.97;;;3.03;;
48685;SDS011;34485;51.536;3.816;2022-10-16T12:21:10;11.45;;;3.35;;
48685;SDS011;34485;51.536;3.816;2022-10-16T12:23:47;11.80;;;2.85;;
48685;SDS011;34485;51.536;3.816;2022-10-16T12:26:13;14.38;;;3.22;;
48685;SDS011;34485;51.536;3.816;2022-10-16T12:28:48;13.63;;;3.05;;
48685;SDS011;34485;51.536;3.816;2022-10-16T12:31:16;11.47;;;2.60;;
48685;SDS011;34485;51.536;3.816;2022-10-16T12:34:03;11.27;;;3.28;;
48685;SDS011;34485;51.536;3.816;2022-10-16T12:36:32;5.90;;;2.97;;
48685;SDS011;34485;51.536;3.816;2022-10-16T12:38:59;7.85;;;2.22;;
48685;SDS011;34485;51.536;3.816;2022-10-16T12:41:33;12.03;;;2.80;;
48685;SDS011;34485;51.536;3.816;2022-10-16T12:44:00;11.07;;;2.67;;
48685;SDS011;34485;51.536;3.816;2022-10-16T12:51:41;17.85;;;4.35;;
48685;SDS011;34485;51.536;3.816;2022-10-16T12:59:47;7.53;;;2.60;;
48685;SDS011;34485;51.536;3.816;2022-10-16T13:05:52;9.52;;;2.67;;
48685;SDS011;34485;51.536;3.816;2022-10-16T13:16:30;10.95;;;3.28;;
48685;SDS011;34485;51.536;3.816;2022-10-16T13:21:48;12.27;;;2.80;;
48685;SDS011;34485;51.536;3.816;2022-10-16T13:24:36;11.88;;;3.05;;
48685;SDS011;34485;51.536;3.816;2022-10-16T13:30:09;10.63;;;2.70;;
48685;SDS011;34485;51.536;3.816;2022-10-16T13:32:47;9.10;;;2.55;;
48685;SDS011;34485;51.536;3.816;2022-10-16T13:35:22;10.07;;;4.07;;
48685;SDS011;34485;51.536;3.816;2022-10-16T13:37:50;17.30;;;3.00;;
48685;SDS011;34485;51.536;3.816;2022-10-16T13:40:27;11.75;;;3.05;;
48685;SDS011;34485;51.536;3.816;2022-10-16T13:42:52;9.37;;;2.83;;
48685;SDS011;34485;51.536;3.816;2022-10-16T13:45:20;7.03;;;2.28;;
48685;SDS011;34485;51.536;3.816;2022-10-16T13:47:47;11.48;;;2.63;;
48685;SDS011;34485;51.536;3.816;2022-10-16T13:50:17;9.97;;;3.20;;
48685;SDS011;34485;51.536;3.816;2022-10-16T13:52:43;6.22;;;1.80;;
48685;SDS011;34485;51.536;3.816;2022-10-16T13:55:12;4.68;;;1.92;;
48685;SDS011;34485;51.536;3.816;2022-10-16T13:57:39;6.63;;;2.23;;
48685;SDS011;34485;51.536;3.816;2022-10-16T14:02:50;8.65;;;2.75;;
48685;SDS011;34485;51.536;3.816;2022-10-16T14:05:20;6.25;;;2.15;;
48685;SDS011;34485;51.536;3.816;2022-10-16T14:07:47;7.87;;;2.70;;
48685;SDS011;34485;51.536;3.816;2022-10-16T14:10:20;5.60;;;2.60;;
48685;SDS011;34485;51.536;3.816;2022-10-16T14:12:59;5.32;;;2.72;;
48685;SDS011;34485;51.536;3.816;2022-10-16T14:15:27;11.35;;;2.50;;
48685;SDS011;34485;51.536;3.816;2022-10-16T14:17:55;7.97;;;3.08;;
48685;SDS011;34485;51.536;3.816;2022-10-16T14:20:24;6.33;;;2.33;;
48685;SDS011;34485;51.536;3.816;2022-10-16T14:22:59;6.72;;;2.25;;
48685;SDS011;34485;51.536;3.816;2022-10-16T14:25:30;6.25;;;2.58;;
48685;SDS011;34485;51.536;3.816;2022-10-16T14:28:30;8.50;;;2.97;;
48685;SDS011;34485;51.536;3.816;2022-10-16T14:30:53;9.75;;;3.10;;
48685;SDS011;34485;51.536;3.816;2022-10-16T14:33:24;7.73;;;3.10;;
48685;SDS011;34485;51.536;3.816;2022-10-16T14:36:11;9.35;;;2.95;;
48685;SDS011;34485;51.536;3.816;2022-10-16T14:38:39;6.60;;;2.17;;
48685;SDS011;34485;51.536;3.816;2022-10-16T14:41:07;8.15;;;2.65;;
48685;SDS011;34485;51.536;3.816;2022-10-16T14:43:39;8.07;;;3.17;;
48685;SDS011;34485;51.536;3.816;2022-10-16T14:46:13;7.13;;;2.87;;
48685;SDS011;34485;51.536;3.816;2022-10-16T14:48:48;5.70;;;2.67;;
48685;SDS011;34485;51.536;3.816;2022-10-16T14:51:19;9.57;;;2.45;;
48685;SDS011;34485;51.536;3.816;2022-10-16T14:53:45;13.10;;;3.30;;
48685;SDS011;34485;51.536;3.816;2022-10-16T14:56:21;8.18;;;3.08;;
48685;SDS011;34485;51.536;3.816;2022-10-16T14:58:51;5.37;;;2.40;;
48685;SDS011;34485;51.536;3.816;2022-10-16T15:01:17;8.13;;;3.25;;
48685;SDS011;34485;51.536;3.816;2022-10-16T15:03:44;7.97;;;2.53;;
48685;SDS011;34485;51.536;3.816;2022-10-16T15:06:13;4.82;;;2.67;;
48685;SDS011;34485;51.536;3.816;2022-10-16T15:08:40;8.17;;;3.07;;
48685;SDS011;34485;51.536;3.816;2022-10-16T15:11:09;8.73;;;2.88;;
48685;SDS011;34485;51.536;3.816;2022-10-16T15:13:38;10.52;;;2.83;;
48685;SDS011;34485;51.536;3.816;2022-10-16T15:16:04;13.82;;;2.78;;
48685;SDS011;34485;51.536;3.816;2022-10-16T15:18:32;7.83;;;2.63;;
48685;SDS011;34485;51.536;3.816;2022-10-16T15:20:57;9.23;;;2.78;;
48685;SDS011;34485;51.536;3.816;2022-10-16T15:23:23;10.90;;;3.17;;
48685;SDS011;34485;51.536;3.816;2022-10-16T15:28:17;7.97;;;2.97;;
48685;SDS011;34485;51.536;3.816;2022-10-16T15:30:43;8.35;;;3.25;;
48685;SDS011;34485;51.536;3.816;2022-10-16T15:33:14;10.55;;;2.85;;
48685;SDS011;34485;51.536;3.816;2022-10-16T15:35:40;7.30;;;2.85;;
48685;SDS011;34485;51.536;3.816;2022-10-16T15:38:06;6.93;;;3.27;;
48685;SDS011;34485;51.536;3.816;2022-10-16T15:40:35;10.63;;;3.28;;
48685;SDS011;34485;51.536;3.816;2022-10-16T15:43:00;7.05;;;3.42;;
48685;SDS011;34485;51.536;3.816;2022-10-16T15:45:26;8.23;;;3.53;;
48685;SDS011;34485;51.536;3.816;2022-10-16T15:47:51;17.93;;;3.83;;
48685;SDS011;34485;51.536;3.816;2022-10-16T15:50:17;9.93;;;3.58;;
48685;SDS011;34485;51.536;3.816;2022-10-16T15:52:43;12.50;;;3.07;;
48685;SDS011;34485;51.536;3.816;2022-10-16T15:55:09;13.93;;;2.92;;
48685;SDS011;34485;51.536;3.816;2022-10-16T15:57:37;8.52;;;3.28;;
48685;SDS011;34485;51.536;3.816;2022-10-16T16:00:08;10.18;;;3.28;;
48685;SDS011;34485;51.536;3.816;2022-10-16T16:02:35;13.90;;;4.20;;
48685;SDS011;34485;51.536;3.816;2022-10-16T16:05:00;12.20;;;3.72;;
48685;SDS011;34485;51.536;3.816;2022-10-16T16:07:26;12.55;;;3.70;;
48685;SDS011;34485;51.536;3.816;2022-10-16T16:09:52;7.47;;;3.40;;
48685;SDS011;34485;51.536;3.816;2022-10-16T16:12:18;16.25;;;3.10;;
48685;SDS011;34485;51.536;3.816;2022-10-16T16:14:44;12.87;;;3.40;;
48685;SDS011;34485;51.536;3.816;2022-10-16T16:17:11;15.55;;;4.18;;
48685;SDS011;34485;51.536;3.816;2022-10-16T16:19:36;10.15;;;3.85;;
48685;SDS011;34485;51.536;3.816;2022-10-16T16:22:02;9.20;;;3.77;;
48685;SDS011;34485;51.536;3.816;2022-10-16T16:24:28;10.68;;;3.42;;
48685;SDS011;34485;51.536;3.816;2022-10-16T16:26:53;13.07;;;3.90;;
48685;SDS011;34485;51.536;3.816;2022-10-16T16:29:19;10.87;;;3.80;;
48685;SDS011;34485;51.536;3.816;2022-10-16T16:31:44;11.00;;;4.47;;
48685;SDS011;34485;51.536;3.816;2022-10-16T16:34:12;15.82;;;3.47;;
48685;SDS011;34485;51.536;3.816;2022-10-16T16:36:38;8.63;;;3.10;;
48685;SDS011;34485;51.536;3.816;2022-10-16T16:39:05;11.73;;;3.43;;
48685;SDS011;34485;51.536;3.816;2022-10-16T16:41:31;10.02;;;2.55;;
48685;SDS011;34485;51.536;3.816;2022-10-16T16:44:05;9.52;;;3.17;;
48685;SDS011;34485;51.536;3.816;2022-10-16T16:46:32;6.63;;;3.45;;
48685;SDS011;34485;51.536;3.816;2022-10-16T16:48:59;10.88;;;3.95;;
48685;SDS011;34485;51.536;3.816;2022-10-16T16:51:25;15.53;;;4.10;;
48685;SDS011;34485;51.536;3.816;2022-10-16T16:53:51;7.38;;;2.85;;
48685;SDS011;34485;51.536;3.816;2022-10-16T16:56:18;6.95;;;3.08;;
48685;SDS011;34485;51.536;3.816;2022-10-16T16:58:45;6.93;;;2.30;;
48685;SDS011;34485;51.536;3.816;2022-10-16T17:01:11;5.93;;;3.13;;
48685;SDS011;34485;51.536;3.816;2022-10-16T17:03:37;6.95;;;3.15;;
48685;SDS011;34485;51.536;3.816;2022-10-16T17:06:07;6.32;;;3.08;;
48685;SDS011;34485;51.536;3.816;2022-10-16T17:08:34;6.97;;;3.38;;
48685;SDS011;34485;51.536;3.816;2022-10-16T17:11:00;6.33;;;3.30;;
48685;SDS011;34485;51.536;3.816;2022-10-16T17:13:27;9.15;;;3.05;;